Time;durP1;ratioP1;P1;durP2;ratioP2;P2;SDS_P1;SDS_P2;PMS_P1;PMS_P2;Temp;Humidity;BMP_temperature;BMP_pressure;BME280_temperature;BME280_humidity;BME280_pressure;Samples;Min_cycle;Max_cycle;Signal;HPM_P1;HPM_P2
2023/08/14 00:01:19;;;;;;;49.57;28.40;;;;;;;;;;5067026;28;20088;-64
2023/08/14 00:03:45;;;;;;;45.00;23.33;;;;;;;;;;5048719;28;20045;-64
2023/08/14 00:06:11;;;;;;;41.90;24.03;;;;;;;;;;5047226;28;20051;-64
2023/08/14 00:08:37;;;;;;;46.53;26.07;;;;;;;;;;5048340;28;20063;-64
2023/08/14 00:11:03;;;;;;;47.67;27.60;;;;;;;;;;5049014;28;20511;-64
2023/08/14 00:13:29;;;;;;;47.87;28.53;;;;;;;;;;5048595;28;20045;-64
2023/08/14 00:15:55;;;;;;;42.40;26.87;;;;;;;;;;5062536;28;20049;-64
2023/08/14 00:18:21;;;;;;;45.87;27.63;;;;;;;;;;5068445;28;20062;-64
2023/08/14 00:20:47;;;;;;;44.87;25.83;;;;;;;;;;5067360;28;20040;-64
2023/08/14 00:23:13;;;;;;;43.27;24.47;;;;;;;;;;5068892;28;20493;-64
2023/08/14 00:25:39;;;;;;;52.57;29.50;;;;;;;;;;5068782;28;20083;-64
2023/08/14 00:28:05;;;;;;;49.33;26.40;;;;;;;;;;5067030;28;20048;-64
2023/08/14 00:30:31;;;;;;;34.03;22.23;;;;;;;;;;5068128;28;20044;-64
2023/08/14 00:32:57;;;;;;;58.00;30.00;;;;;;;;;;5068873;28;20110;-64
2023/08/14 00:35:23;;;;;;;51.43;27.70;;;;;;;;;;5068366;28;20051;-64
2023/08/14 00:37:49;;;;;;;48.17;25.40;;;;;;;;;;5068729;28;20468;-64
2023/08/14 00:40:16;;;;;;;53.57;28.57;;;;;;;;;;5068617;28;20548;-64
2023/08/14 00:42:42;;;;;;;59.80;32.10;;;;;;;;;;5067717;28;20044;-64
2023/08/14 00:45:09;;;;;;;44.13;26.77;;;;;;;;;;5068095;28;20048;-64
2023/08/14 00:47:35;;;;;;;41.03;24.43;;;;;;;;;;5060238;28;20459;-64
2023/08/14 00:50:05;;;;;;;45.63;25.67;;;;;;;;;;5048737;28;20053;-64
2023/08/14 00:52:32;;;;;;;39.50;25.13;;;;;;;;;;5048527;28;20056;-64
2023/08/14 00:55:00;;;;;;;40.87;27.13;;;;;;;;;;5050286;28;20048;-64
2023/08/14 00:57:26;;;;;;;45.57;27.40;;;;;;;;;;5052558;28;20053;-64
2023/08/14 00:59:52;;;;;;;52.97;28.57;;;;;;;;;;5050581;28;20045;-64
2023/08/14 01:02:19;;;;;;;46.87;27.97;;;;;;;;;;5051759;28;20415;-64
2023/08/14 01:04:45;;;;;;;56.67;29.50;;;;;;;;;;5051928;28;20052;-64
2023/08/14 01:07:11;;;;;;;53.93;28.07;;;;;;;;;;5051129;28;20048;-64
2023/08/14 01:09:37;;;;;;;64.93;31.13;;;;;;;;;;5055170;28;20098;-64
2023/08/14 01:12:12;;;;;;;46.87;25.67;;;;;;;;;;5052353;28;20078;-64
2023/08/14 01:14:38;;;;;;;46.00;27.00;;;;;;;;;;5051189;28;20461;-64
2023/08/14 01:17:07;;;;;;;69.73;32.47;;;;;;;;;;5051349;28;20041;-64
2023/08/14 01:19:35;;;;;;;43.90;25.10;;;;;;;;;;5052140;28;20052;-63
2023/08/14 01:22:05;;;;;;;51.93;27.47;;;;;;;;;;5051891;28;20093;-64
2023/08/14 01:24:50;;;;;;;48.17;27.10;;;;;;;;;;5051260;28;20041;-64
2023/08/14 01:27:16;;;;;;;58.40;30.23;;;;;;;;;;5053331;28;20088;-64
2023/08/14 01:29:43;;;;;;;55.37;29.60;;;;;;;;;;5051122;28;20142;-64
2023/08/14 01:32:09;;;;;;;55.63;30.80;;;;;;;;;;5051826;28;20045;-64
2023/08/14 01:34:35;;;;;;;60.50;32.53;;;;;;;;;;5051655;28;20052;-64
2023/08/14 01:37:17;;;;;;;57.50;32.40;;;;;;;;;;5052770;28;20044;-64
2023/08/14 01:39:53;;;;;;;64.53;31.40;;;;;;;;;;5052201;28;20091;-64
2023/08/14 01:42:26;;;;;;;60.77;31.53;;;;;;;;;;5051541;28;20093;-64
2023/08/14 01:44:55;;;;;;;57.45;29.42;;;;;;;;;;5051466;28;20513;-64
2023/08/14 01:47:22;;;;;;;79.43;39.17;;;;;;;;;;5069239;28;20048;-64
2023/08/14 01:49:49;;;;;;;68.73;34.23;;;;;;;;;;5062096;28;20503;-64
2023/08/14 01:52:15;;;;;;;51.37;29.13;;;;;;;;;;5051395;28;20041;-64
2023/08/14 01:54:41;;;;;;;105.47;41.73;;;;;;;;;;5051165;28;20578;-64
2023/08/14 01:57:07;;;;;;;54.10;27.30;;;;;;;;;;5051196;28;20139;-64
2023/08/14 01:59:41;;;;;;;70.67;33.80;;;;;;;;;;5051468;28;20392;-64
2023/08/14 02:02:07;;;;;;;55.20;31.27;;;;;;;;;;5051590;28;20049;-64
2023/08/14 02:04:33;;;;;;;59.20;30.87;;;;;;;;;;5050441;28;20490;-64
2023/08/14 02:06:59;;;;;;;77.20;35.20;;;;;;;;;;5064636;28;20097;-64
2023/08/14 02:09:25;;;;;;;64.23;32.07;;;;;;;;;;5051512;28;20041;-64
2023/08/14 02:11:51;;;;;;;54.07;30.07;;;;;;;;;;5051071;28;20414;-64
2023/08/14 02:14:17;;;;;;;55.77;31.80;;;;;;;;;;5050419;28;20052;-64
2023/08/14 02:16:43;;;;;;;53.23;28.70;;;;;;;;;;5051101;28;20087;-64
2023/08/14 02:19:09;;;;;;;65.53;31.67;;;;;;;;;;5050960;28;20503;-64
2023/08/14 02:21:35;;;;;;;57.37;31.70;;;;;;;;;;5051170;28;20045;-63
2023/08/14 02:24:01;;;;;;;58.70;31.87;;;;;;;;;;5053132;28;20045;-64
2023/08/14 02:26:27;;;;;;;52.30;29.53;;;;;;;;;;5069791;28;20051;-63
2023/08/14 02:28:53;;;;;;;56.53;32.27;;;;;;;;;;5070158;28;20132;-63
2023/08/14 02:31:19;;;;;;;57.90;29.80;;;;;;;;;;5070654;28;20053;-64
2023/08/14 02:33:45;;;;;;;67.03;34.23;;;;;;;;;;5070911;28;20060;-63
2023/08/14 02:36:11;;;;;;;98.07;42.00;;;;;;;;;;5070676;28;20560;-63
2023/08/14 02:38:37;;;;;;;54.97;31.67;;;;;;;;;;5070631;28;20045;-64
2023/08/14 02:41:03;;;;;;;79.33;37.17;;;;;;;;;;5070665;28;20127;-64
2023/08/14 02:43:30;;;;;;;69.50;35.50;;;;;;;;;;5070032;28;20044;-63
2023/08/14 02:45:56;;;;;;;65.60;33.73;;;;;;;;;;5060407;28;20040;-64
2023/08/14 02:48:23;;;;;;;67.33;36.20;;;;;;;;;;5062795;28;20483;-64
2023/08/14 02:50:49;;;;;;;64.23;34.40;;;;;;;;;;5070162;28;20094;-63
2023/08/14 02:53:15;;;;;;;74.77;37.70;;;;;;;;;;5069053;28;20167;-64
2023/08/14 02:55:41;;;;;;;57.53;32.20;;;;;;;;;;5050201;28;20148;-64
2023/08/14 02:58:07;;;;;;;54.17;32.40;;;;;;;;;;5050504;28;20052;-63
2023/08/14 03:00:33;;;;;;;60.03;35.43;;;;;;;;;;5052159;28;20072;-63
2023/08/14 03:02:59;;;;;;;63.00;34.37;;;;;;;;;;5069685;28;20131;-64
2023/08/14 03:05:25;;;;;;;115.93;45.97;;;;;;;;;;5070267;28;20062;-64
2023/08/14 03:07:51;;;;;;;69.57;35.57;;;;;;;;;;5069064;28;20037;-63
2023/08/14 03:10:17;;;;;;;58.27;32.73;;;;;;;;;;5070188;28;20044;-64
2023/08/14 03:12:43;;;;;;;82.53;39.53;;;;;;;;;;5068623;28;20079;-64
2023/08/14 03:15:09;;;;;;;62.17;35.77;;;;;;;;;;5069988;28;20445;-64
2023/08/14 03:17:35;;;;;;;63.97;36.17;;;;;;;;;;5068817;28;20044;-63
2023/08/14 03:20:03;;;;;;;63.63;34.03;;;;;;;;;;5069945;28;20048;-63
2023/08/14 03:22:29;;;;;;;76.10;38.27;;;;;;;;;;5069890;28;20503;-63
2023/08/14 03:24:55;;;;;;;59.83;34.23;;;;;;;;;;5067672;28;20052;-63
2023/08/14 03:27:21;;;;;;;66.90;35.57;;;;;;;;;;5068838;28;20094;-63
2023/08/14 03:29:47;;;;;;;61.50;33.13;;;;;;;;;;5069119;28;20448;-63
2023/08/14 03:32:13;;;;;;;68.87;39.60;;;;;;;;;;5068193;28;20128;-63
2023/08/14 03:34:39;;;;;;;53.73;33.10;;;;;;;;;;5069068;28;20090;-63
2023/08/14 03:37:05;;;;;;;62.83;37.30;;;;;;;;;;5050538;28;20049;-63
2023/08/14 03:39:31;;;;;;;70.13;35.00;;;;;;;;;;5057815;28;20041;-63
2023/08/14 03:41:57;;;;;;;67.93;37.17;;;;;;;;;;5048555;28;20045;-64
2023/08/14 03:44:23;;;;;;;70.80;37.47;;;;;;;;;;5048184;28;20045;-64
2023/08/14 03:46:49;;;;;;;77.43;39.37;;;;;;;;;;5048794;28;20056;-64
2023/08/14 03:49:15;;;;;;;82.43;41.20;;;;;;;;;;5048774;28;20068;-64
2023/08/14 03:51:41;;;;;;;65.07;37.03;;;;;;;;;;5049390;28;20053;-63
2023/08/14 03:54:07;;;;;;;77.07;42.27;;;;;;;;;;5057765;28;20067;-63
2023/08/14 03:56:33;;;;;;;119.57;49.47;;;;;;;;;;5069036;28;20569;-63
2023/08/14 03:58:59;;;;;;;73.20;38.40;;;;;;;;;;5069416;28;20136;-63
2023/08/14 04:01:26;;;;;;;58.63;33.00;;;;;;;;;;5069429;28;20056;-63
2023/08/14 04:03:51;;;;;;;89.27;44.07;;;;;;;;;;5062054;28;20074;-63
2023/08/14 04:06:19;;;;;;;75.53;40.67;;;;;;;;;;5069666;28;20066;-63
2023/08/14 04:08:45;;;;;;;96.50;42.23;;;;;;;;;;5068606;28;20503;-63
2023/08/14 04:11:11;;;;;;;83.43;44.27;;;;;;;;;;5069036;28;20037;-64
2023/08/14 04:13:37;;;;;;;79.90;42.70;;;;;;;;;;5068835;28;20575;-64
2023/08/14 04:16:03;;;;;;;79.23;43.13;;;;;;;;;;5069001;28;20052;-64
2023/08/14 04:18:32;;;;;;;77.13;44.00;;;;;;;;;;5068784;28;20426;-64
2023/08/14 04:20:58;;;;;;;85.03;45.10;;;;;;;;;;5068731;28;20056;-63
2023/08/14 04:23:25;;;;;;;195.57;65.67;;;;;;;;;;5064256;28;20045;-63
2023/08/14 04:25:51;;;;;;;83.23;44.10;;;;;;;;;;5058969;28;20080;-63
2023/08/14 04:28:17;;;;;;;83.80;43.33;;;;;;;;;;5048867;28;20052;-63
2023/08/14 04:30:43;;;;;;;74.73;43.80;;;;;;;;;;5048157;28;20399;-64
2023/08/14 04:33:09;;;;;;;86.53;42.67;;;;;;;;;;5048760;28;20049;-63
2023/08/14 04:35:37;;;;;;;80.70;42.97;;;;;;;;;;5048308;28;20048;-64
2023/08/14 04:38:04;;;;;;;66.13;41.07;;;;;;;;;;5048419;28;20423;-63
2023/08/14 04:40:30;;;;;;;71.77;38.97;;;;;;;;;;5048528;28;20041;-64
2023/08/14 04:42:56;;;;;;;92.63;46.13;;;;;;;;;;5048837;28;20469;-63
2023/08/14 04:45:22;;;;;;;79.90;42.10;;;;;;;;;;5046924;28;20052;-64
2023/08/14 04:47:48;;;;;;;74.37;39.87;;;;;;;;;;5048360;28;20044;-63
2023/08/14 04:50:14;;;;;;;70.57;40.07;;;;;;;;;;5048599;28;20090;-63
2023/08/14 04:52:40;;;;;;;75.17;42.27;;;;;;;;;;5049104;28;20052;-63
2023/08/14 04:55:06;;;;;;;80.80;41.47;;;;;;;;;;5067515;28;20044;-63
2023/08/14 04:57:32;;;;;;;81.20;39.47;;;;;;;;;;5064618;28;20127;-63
2023/08/14 04:59:58;;;;;;;51.87;32.57;;;;;;;;;;5064450;28;20040;-63
2023/08/14 05:02:24;;;;;;;68.37;38.57;;;;;;;;;;5051769;28;20044;-63
2023/08/14 05:04:50;;;;;;;61.87;34.73;;;;;;;;;;5066794;28;20059;-63
2023/08/14 05:07:16;;;;;;;59.47;34.90;;;;;;;;;;5068833;28;20067;-63
2023/08/14 05:09:42;;;;;;;62.10;35.83;;;;;;;;;;5068539;28;20052;-64
2023/08/14 05:12:08;;;;;;;74.80;39.73;;;;;;;;;;5068029;28;20051;-63
2023/08/14 05:14:34;;;;;;;55.20;32.53;;;;;;;;;;5068713;28;20047;-63
2023/08/14 05:17:00;;;;;;;58.73;35.37;;;;;;;;;;5068325;28;20116;-64
2023/08/14 05:19:26;;;;;;;56.97;35.70;;;;;;;;;;5068193;28;20143;-63
2023/08/14 05:21:52;;;;;;;56.60;33.43;;;;;;;;;;5068545;28;20127;-63
2023/08/14 05:24:18;;;;;;;54.37;33.13;;;;;;;;;;5051586;28;20499;-64
2023/08/14 05:26:44;;;;;;;58.57;34.43;;;;;;;;;;5051561;28;20105;-63
2023/08/14 05:29:10;;;;;;;43.17;29.23;;;;;;;;;;5063565;28;20402;-63
2023/08/14 05:31:37;;;;;;;50.43;30.07;;;;;;;;;;5067944;28;20127;-63
2023/08/14 05:34:03;;;;;;;43.60;28.67;;;;;;;;;;5067708;28;20094;-63
2023/08/14 05:36:29;;;;;;;44.00;26.80;;;;;;;;;;5067391;28;20050;-63
2023/08/14 05:38:55;;;;;;;55.13;29.53;;;;;;;;;;5063532;28;20128;-64
2023/08/14 05:41:21;;;;;;;53.17;30.17;;;;;;;;;;5057593;28;20040;-64
2023/08/14 05:43:48;;;;;;;43.20;26.53;;;;;;;;;;5051131;28;20136;-64
2023/08/14 05:46:14;;;;;;;48.53;28.20;;;;;;;;;;5051074;28;20068;-64
2023/08/14 05:48:40;;;;;;;49.43;29.93;;;;;;;;;;5051553;28;20415;-64
2023/08/14 05:51:06;;;;;;;42.83;27.60;;;;;;;;;;5060110;28;20039;-64
2023/08/14 05:53:32;;;;;;;55.60;30.87;;;;;;;;;;5066993;28;20131;-64
2023/08/14 05:55:58;;;;;;;55.13;30.87;;;;;;;;;;5050804;28;20455;-63
2023/08/14 05:58:24;;;;;;;58.53;30.47;;;;;;;;;;5050787;28;20049;-64
2023/08/14 06:00:50;;;;;;;37.20;26.77;;;;;;;;;;5055048;28;20037;-63
2023/08/14 06:03:16;;;;;;;41.63;25.40;;;;;;;;;;5070879;28;20444;-64
2023/08/14 06:05:42;;;;;;;42.53;27.73;;;;;;;;;;5070623;28;20052;-64
2023/08/14 06:08:08;;;;;;;35.10;25.27;;;;;;;;;;5070657;28;20102;-63
2023/08/14 06:10:34;;;;;;;37.97;23.80;;;;;;;;;;5066746;28;20576;-64
2023/08/14 06:13:00;;;;;;;38.80;25.60;;;;;;;;;;5067139;28;20064;-64
2023/08/14 06:15:27;;;;;;;43.90;26.20;;;;;;;;;;5068824;28;20064;-64
2023/08/14 06:17:53;;;;;;;39.00;25.47;;;;;;;;;;5070418;28;20052;-64
2023/08/14 06:20:20;;;;;;;34.00;24.13;;;;;;;;;;5070475;28;20047;-64
2023/08/14 06:22:46;;;;;;;31.13;23.77;;;;;;;;;;5067247;28;20060;-64
2023/08/14 06:25:13;;;;;;;36.30;24.47;;;;;;;;;;5069913;28;20040;-64
2023/08/14 06:27:39;;;;;;;36.13;24.03;;;;;;;;;;5070235;28;20055;-64
2023/08/14 06:30:07;;;;;;;37.67;24.13;;;;;;;;;;5069875;28;20411;-64
2023/08/14 06:32:33;;;;;;;42.47;26.17;;;;;;;;;;5069806;28;20044;-64
2023/08/14 06:34:59;;;;;;;39.37;26.00;;;;;;;;;;5070174;28;20097;-64
2023/08/14 06:37:25;;;;;;;38.50;24.17;;;;;;;;;;5069806;28;20040;-64
2023/08/14 06:39:51;;;;;;;45.37;24.57;;;;;;;;;;5069169;28;20113;-64
2023/08/14 06:42:17;;;;;;;45.87;26.43;;;;;;;;;;5070356;28;20048;-64
2023/08/14 06:44:43;;;;;;;44.73;25.27;;;;;;;;;;5068446;28;20509;-63
2023/08/14 06:47:09;;;;;;;38.87;25.53;;;;;;;;;;5064408;28;20036;-64
2023/08/14 06:49:35;;;;;;;38.30;23.87;;;;;;;;;;5066494;28;20041;-63
2023/08/14 06:52:02;;;;;;;35.37;23.37;;;;;;;;;;5067475;28;20048;-64
2023/08/14 06:54:28;;;;;;;32.93;22.43;;;;;;;;;;5063684;28;20097;-64
2023/08/14 06:56:54;;;;;;;38.73;23.57;;;;;;;;;;5064851;28;20518;-64
2023/08/14 06:59:20;;;;;;;31.10;20.40;;;;;;;;;;5054708;28;20037;-64
2023/08/14 07:01:46;;;;;;;34.63;20.50;;;;;;;;;;5069128;28;20048;-64
2023/08/14 07:04:12;;;;;;;37.10;23.17;;;;;;;;;;5067478;28;20470;-64
2023/08/14 07:06:38;;;;;;;35.40;22.37;;;;;;;;;;5068092;28;20047;-64
2023/08/14 07:09:04;;;;;;;33.63;21.23;;;;;;;;;;5062436;28;20398;-64
2023/08/14 07:11:38;;;;;;;30.30;20.77;;;;;;;;;;5054963;28;20033;-64
2023/08/14 07:14:04;;;;;;;31.57;19.57;;;;;;;;;;5060675;28;20055;-64
2023/08/14 07:16:30;;;;;;;34.47;21.07;;;;;;;;;;5066366;28;20140;-64
2023/08/14 07:18:56;;;;;;;24.70;16.77;;;;;;;;;;5065019;28;20128;-64
2023/08/14 07:21:22;;;;;;;25.90;17.73;;;;;;;;;;5051304;28;20044;-64
2023/08/14 07:23:48;;;;;;;23.80;16.50;;;;;;;;;;5061897;28;20690;-64
2023/08/14 07:26:15;;;;;;;25.13;17.40;;;;;;;;;;5050860;28;20048;-64
2023/08/14 07:28:44;;;;;;;27.47;16.90;;;;;;;;;;5049627;28;20519;-64
2023/08/14 07:31:10;;;;;;;24.83;15.80;;;;;;;;;;5050781;28;20253;-64
2023/08/14 07:33:36;;;;;;;28.47;17.90;;;;;;;;;;5048983;28;20036;-64
2023/08/14 07:36:03;;;;;;;28.53;16.57;;;;;;;;;;5049468;28;20045;-64
2023/08/14 07:38:29;;;;;;;18.67;11.03;;;;;;;;;;5067761;28;20060;-64
2023/08/14 07:40:55;;;;;;;23.10;12.43;;;;;;;;;;5050745;28;20056;-64
2023/08/14 07:43:22;;;;;;;16.17;8.93;;;;;;;;;;5059216;28;20044;-65
2023/08/14 07:45:48;;;;;;;16.87;10.10;;;;;;;;;;5066529;28;20441;-64
2023/08/14 07:48:14;;;;;;;10.63;6.97;;;;;;;;;;5068340;28;20040;-64
2023/08/14 07:50:40;;;;;;;11.87;7.23;;;;;;;;;;5068527;28;20044;-64
2023/08/14 07:53:06;;;;;;;14.50;7.07;;;;;;;;;;5068403;28;20057;-64
2023/08/14 07:55:32;;;;;;;9.50;6.00;;;;;;;;;;5067589;28;20410;-65
2023/08/14 07:57:58;;;;;;;9.77;6.23;;;;;;;;;;5068706;28;20056;-64
2023/08/14 08:00:25;;;;;;;10.70;5.07;;;;;;;;;;5068314;28;20044;-64
2023/08/14 08:02:52;;;;;;;10.80;5.70;;;;;;;;;;5067793;28;20503;-64
2023/08/14 08:05:18;;;;;;;10.37;5.80;;;;;;;;;;5068047;28;20502;-65
2023/08/14 08:07:44;;;;;;;10.50;4.73;;;;;;;;;;5067621;28;20278;-65
2023/08/14 08:10:10;;;;;;;13.37;5.00;;;;;;;;;;5068226;28;20055;-64
2023/08/14 08:12:36;;;;;;;9.77;4.90;;;;;;;;;;5067817;28;20036;-64
2023/08/14 08:15:02;;;;;;;8.17;3.27;;;;;;;;;;5066166;28;20513;-64
2023/08/14 08:17:28;;;;;;;7.37;3.27;;;;;;;;;;5068132;28;20049;-64
2023/08/14 08:19:54;;;;;;;7.53;3.00;;;;;;;;;;5067663;28;20464;-64
2023/08/14 08:22:20;;;;;;;4.37;2.23;;;;;;;;;;5067869;28;20044;-64
2023/08/14 08:24:47;;;;;;;8.33;2.90;;;;;;;;;;5067400;28;20075;-64
2023/08/14 08:27:13;;;;;;;8.23;2.47;;;;;;;;;;5067733;28;20095;-64
2023/08/14 08:29:39;;;;;;;4.27;1.77;;;;;;;;;;5067716;28;20487;-64
2023/08/14 08:32:05;;;;;;;8.23;2.43;;;;;;;;;;5067836;28;20047;-64
2023/08/14 08:34:31;;;;;;;8.30;2.60;;;;;;;;;;5067332;28;20106;-64
2023/08/14 08:36:57;;;;;;;9.30;2.37;;;;;;;;;;5067889;28;20036;-63
2023/08/14 08:39:23;;;;;;;5.73;2.30;;;;;;;;;;5067776;28;20044;-64
2023/08/14 08:41:49;;;;;;;9.87;3.27;;;;;;;;;;5067736;28;20041;-63
2023/08/14 08:44:24;;;;;;;7.57;2.50;;;;;;;;;;5067323;28;20045;-63
2023/08/14 08:47:10;;;;;;;6.13;1.93;;;;;;;;;;5067760;28;20523;-63
2023/08/14 08:49:36;;;;;;;8.30;2.73;;;;;;;;;;5067510;28;20113;-63
2023/08/14 08:52:03;;;;;;;10.70;2.67;;;;;;;;;;5067631;28;20044;-63
2023/08/14 08:54:29;;;;;;;9.33;2.10;;;;;;;;;;5067137;28;20040;-63
2023/08/14 08:56:59;;;;;;;11.30;3.20;;;;;;;;;;5067678;28;20041;-63
2023/08/14 08:59:26;;;;;;;6.95;2.40;;;;;;;;;;5067563;28;20129;-63
2023/08/14 09:01:52;;;;;;;7.65;2.53;;;;;;;;;;5067541;28;20056;-62
2023/08/14 09:04:18;;;;;;;9.90;2.70;;;;;;;;;;5066764;28;20098;-62
2023/08/14 09:06:44;;;;;;;10.13;2.75;;;;;;;;;;5067623;28;20097;-62
2023/08/14 09:09:12;;;;;;;8.82;2.90;;;;;;;;;;5067468;28;20509;-62
2023/08/14 09:11:38;;;;;;;7.97;2.50;;;;;;;;;;5067190;28;20040;-62
2023/08/14 09:14:05;;;;;;;9.87;2.83;;;;;;;;;;5067512;28;20044;-61
2023/08/14 09:16:31;;;;;;;6.57;2.67;;;;;;;;;;5070226;28;20487;-62
2023/08/14 09:18:59;;;;;;;7.93;3.38;;;;;;;;;;5070992;28;20047;-62
2023/08/14 09:21:26;;;;;;;6.73;2.43;;;;;;;;;;5070645;28;20041;-62
2023/08/14 09:23:52;;;;;;;7.73;2.30;;;;;;;;;;5070844;28;20544;-62
2023/08/14 09:26:19;;;;;;;7.57;2.43;;;;;;;;;;5071097;28;20123;-62
2023/08/14 09:28:45;;;;;;;5.70;2.10;;;;;;;;;;5070941;28;20094;-62
2023/08/14 09:31:12;;;;;;;7.47;2.30;;;;;;;;;;5070564;28;20074;-61
2023/08/14 09:33:39;;;;;;;6.25;2.78;;;;;;;;;;5070869;28;20056;-61
2023/08/14 09:36:05;;;;;;;5.53;2.07;;;;;;;;;;5070884;28;20041;-62
2023/08/14 09:38:31;;;;;;;5.72;1.83;;;;;;;;;;5070838;28;20382;-62
2023/08/14 09:40:58;;;;;;;7.07;1.85;;;;;;;;;;5070514;28;20044;-63
2023/08/14 09:43:25;;;;;;;7.55;1.95;;;;;;;;;;5070235;28;20415;-61
2023/08/14 09:45:54;;;;;;;6.00;1.88;;;;;;;;;;5070774;28;20045;-61
2023/08/14 09:48:21;;;;;;;5.55;2.20;;;;;;;;;;5070730;28;20043;-61
2023/08/14 09:50:50;;;;;;;7.60;2.42;;;;;;;;;;5070804;28;20154;-61
2023/08/14 09:53:16;;;;;;;5.35;1.90;;;;;;;;;;5069615;28;20494;-61
2023/08/14 09:55:43;;;;;;;7.70;1.70;;;;;;;;;;5070700;28;20053;-61
2023/08/14 09:58:09;;;;;;;6.25;1.80;;;;;;;;;;5070577;28;20047;-61
2023/08/14 10:00:37;;;;;;;4.70;1.67;;;;;;;;;;5069530;28;20052;-61
2023/08/14 10:03:04;;;;;;;6.47;1.70;;;;;;;;;;5070486;28;20057;-60
2023/08/14 10:05:30;;;;;;;5.95;2.15;;;;;;;;;;5070430;28;20102;-61
2023/08/14 10:07:58;;;;;;;7.13;1.70;;;;;;;;;;5070150;28;20045;-61
2023/08/14 10:10:25;;;;;;;5.55;1.25;;;;;;;;;;5070006;28;20415;-61
2023/08/14 10:12:57;;;;;;;6.80;2.22;;;;;;;;;;5070080;28;20495;-61
2023/08/14 10:15:29;;;;;;;5.63;1.50;;;;;;;;;;5070159;28;20131;-61
2023/08/14 10:18:01;;;;;;;5.72;1.65;;;;;;;;;;5070035;28;20106;-60
2023/08/14 10:20:30;;;;;;;4.97;1.60;;;;;;;;;;5070159;28;20465;-61
2023/08/14 10:22:57;;;;;;;8.70;2.35;;;;;;;;;;5069453;28;20056;-60
2023/08/14 10:25:23;;;;;;;5.85;1.42;;;;;;;;;;5070128;28;20064;-60
2023/08/14 10:27:50;;;;;;;6.43;1.88;;;;;;;;;;5069920;28;20113;-60
2023/08/14 10:30:17;;;;;;;4.78;1.50;;;;;;;;;;5069432;28;20177;-61
2023/08/14 10:32:44;;;;;;;6.03;2.08;;;;;;;;;;5070008;28;20186;-61
2023/08/14 10:35:11;;;;;;;6.00;1.80;;;;;;;;;;5069852;28;20048;-61
2023/08/14 10:37:48;;;;;;;4.35;1.30;;;;;;;;;;5069515;28;20422;-61
2023/08/14 10:40:21;;;;;;;3.00;1.20;;;;;;;;;;5069991;28;20308;-61
2023/08/14 10:42:48;;;;;;;4.75;1.50;;;;;;;;;;5069558;28;20487;-60
2023/08/14 10:45:18;;;;;;;6.57;1.52;;;;;;;;;;5069601;28;20055;-61
2023/08/14 10:47:45;;;;;;;5.90;2.08;;;;;;;;;;5069494;28;20047;-61
2023/08/14 10:50:28;;;;;;;4.30;1.70;;;;;;;;;;5050544;28;20450;-61
2023/08/14 10:52:55;;;;;;;6.68;1.88;;;;;;;;;;5054551;28;20044;-60
2023/08/14 10:55:38;;;;;;;5.68;1.90;;;;;;;;;;5049438;28;20045;-61
2023/08/14 10:58:40;;;;;;;5.78;1.80;;;;;;;;;;5049630;28;20044;-61
2023/08/14 11:01:07;;;;;;;5.10;1.42;;;;;;;;;;5006993;28;20507;-60
2023/08/14 11:03:34;;;;;;;5.90;1.60;;;;;;;;;;5040863;28;20061;-61
2023/08/14 11:06:00;;;;;;;7.13;1.85;;;;;;;;;;5053802;28;20063;-61
2023/08/14 11:08:30;;;;;;;7.53;1.88;;;;;;;;;;5069348;28;20426;-61
2023/08/14 11:10:58;;;;;;;7.88;2.10;;;;;;;;;;5069079;28;20132;-61
2023/08/14 11:13:28;;;;;;;5.15;1.70;;;;;;;;;;5059879;28;20044;-60
2023/08/14 11:15:54;;;;;;;5.25;1.60;;;;;;;;;;5053454;28;20485;-61
2023/08/14 11:18:20;;;;;;;5.85;2.00;;;;;;;;;;5051289;28;20491;-61
2023/08/14 11:20:46;;;;;;;6.40;1.80;;;;;;;;;;5069289;28;20398;-61
2023/08/14 11:23:12;;;;;;;4.78;1.70;;;;;;;;;;5068053;28;20052;-60
2023/08/14 11:25:38;;;;;;;3.63;1.48;;;;;;;;;;5067510;28;20044;-61
2023/08/14 11:28:05;;;;;;;6.78;1.70;;;;;;;;;;5048869;28;20503;-61
2023/08/14 11:30:32;;;;;;;5.47;2.00;;;;;;;;;;5051215;28;20617;-61
2023/08/14 11:32:58;;;;;;;5.35;1.65;;;;;;;;;;5069281;28;20072;-61
2023/08/14 11:35:28;;;;;;;7.10;1.92;;;;;;;;;;5069618;28;20410;-61
2023/08/14 11:37:55;;;;;;;6.75;2.20;;;;;;;;;;5068948;28;20388;-61
2023/08/14 11:40:21;;;;;;;5.10;1.98;;;;;;;;;;5069699;28;20131;-61
2023/08/14 11:42:47;;;;;;;5.47;1.80;;;;;;;;;;5066022;28;20044;-61
2023/08/14 11:45:13;;;;;;;3.88;1.95;;;;;;;;;;5065734;28;20044;-61
2023/08/14 11:47:48;;;;;;;5.72;1.83;;;;;;;;;;5068526;28;20044;-61
2023/08/14 11:50:16;;;;;;;5.65;1.77;;;;;;;;;;5068462;28;20048;-61
2023/08/14 11:52:42;;;;;;;7.90;2.08;;;;;;;;;;5066693;28;20088;-61
2023/08/14 11:55:08;;;;;;;7.22;2.30;;;;;;;;;;5065962;28;20041;-61
2023/08/14 11:57:34;;;;;;;6.22;1.88;;;;;;;;;;5068888;28;20041;-61
2023/08/14 12:00:01;;;;;;;7.35;2.55;;;;;;;;;;5061920;28;20052;-61
2023/08/14 12:02:28;;;;;;;3.22;1.58;;;;;;;;;;5065643;28;20117;-62
2023/08/14 12:04:55;;;;;;;5.57;1.85;;;;;;;;;;5065913;28;20049;-61
2023/08/14 12:07:22;;;;;;;9.57;2.05;;;;;;;;;;5069164;28;20076;-61
2023/08/14 12:09:48;;;;;;;7.22;2.10;;;;;;;;;;5069098;28;20384;-61
2023/08/14 12:12:14;;;;;;;9.50;2.17;;;;;;;;;;5068716;28;20048;-61
2023/08/14 12:14:41;;;;;;;7.30;1.60;;;;;;;;;;5068045;28;20052;-61
2023/08/14 12:17:11;;;;;;;5.85;2.03;;;;;;;;;;5062959;28;20093;-61
2023/08/14 12:19:38;;;;;;;6.80;2.22;;;;;;;;;;5048697;28;20041;-61
2023/08/14 12:22:04;;;;;;;6.28;2.25;;;;;;;;;;5048469;28;20052;-61
2023/08/14 12:24:38;;;;;;;5.40;1.60;;;;;;;;;;5048389;28;20041;-61
2023/08/14 12:27:05;;;;;;;7.43;2.40;;;;;;;;;;5047915;28;20552;-61
2023/08/14 12:29:31;;;;;;;5.57;2.00;;;;;;;;;;5048351;28;20216;-61
2023/08/14 12:31:59;;;;;;;5.72;1.73;;;;;;;;;;5048525;28;20052;-61
2023/08/14 12:34:25;;;;;;;5.28;1.92;;;;;;;;;;5048564;28;20126;-61
2023/08/14 12:36:51;;;;;;;7.82;3.05;;;;;;;;;;5048246;28;20041;-62
2023/08/14 12:39:17;;;;;;;6.82;1.90;;;;;;;;;;5047335;28;20487;-62
2023/08/14 12:41:43;;;;;;;4.63;1.80;;;;;;;;;;5058846;28;20097;-61
2023/08/14 12:44:09;;;;;;;9.25;2.05;;;;;;;;;;5067967;28;20051;-61
2023/08/14 12:46:35;;;;;;;4.97;2.33;;;;;;;;;;5068460;28;20049;-61
2023/08/14 12:49:01;;;;;;;5.40;2.05;;;;;;;;;;5068838;28;20054;-61
2023/08/14 12:51:27;;;;;;;6.00;2.03;;;;;;;;;;5062970;28;20037;-62
2023/08/14 12:53:53;;;;;;;5.07;1.90;;;;;;;;;;5055463;28;20047;-62
2023/08/14 12:56:19;;;;;;;4.70;2.00;;;;;;;;;;5072427;28;20498;-61
2023/08/14 12:58:46;;;;;;;5.88;1.98;;;;;;;;;;5064621;28;20055;-62
2023/08/14 13:01:12;;;;;;;6.13;1.70;;;;;;;;;;5055827;28;20076;-62
2023/08/14 13:03:38;;;;;;;7.80;1.60;;;;;;;;;;5063760;28;20490;-61
2023/08/14 13:06:06;;;;;;;4.63;1.75;;;;;;;;;;5070004;28;20131;-61
2023/08/14 13:08:32;;;;;;;7.00;2.47;;;;;;;;;;5069076;28;20048;-62
2023/08/14 13:10:58;;;;;;;6.07;2.20;;;;;;;;;;5052568;28;20490;-62
2023/08/14 13:13:26;;;;;;;5.13;2.10;;;;;;;;;;5061123;28;20048;-62
2023/08/14 13:15:52;;;;;;;6.05;1.80;;;;;;;;;;5055544;28;20076;-61
2023/08/14 13:18:18;;;;;;;4.78;1.63;;;;;;;;;;5059864;28;20056;-62
2023/08/14 13:20:44;;;;;;;4.40;1.55;;;;;;;;;;5055671;28;20040;-62
2023/08/14 13:23:10;;;;;;;5.45;1.65;;;;;;;;;;5061540;28;20414;-62
2023/08/14 13:25:36;;;;;;;4.70;1.67;;;;;;;;;;5062164;28;20053;-62
2023/08/14 13:28:03;;;;;;;7.35;2.35;;;;;;;;;;5068185;28;20051;-62
2023/08/14 13:30:29;;;;;;;6.13;1.70;;;;;;;;;;5071973;28;20052;-62
2023/08/14 13:32:55;;;;;;;5.82;1.98;;;;;;;;;;5071453;28;20084;-62
2023/08/14 13:35:21;;;;;;;5.85;2.38;;;;;;;;;;5071512;28;20056;-62
2023/08/14 13:37:47;;;;;;;4.63;1.50;;;;;;;;;;5071695;28;20036;-62
2023/08/14 13:40:13;;;;;;;4.68;1.60;;;;;;;;;;5054666;28;20052;-62
2023/08/14 13:42:39;;;;;;;3.75;1.60;;;;;;;;;;5062430;28;20044;-62
2023/08/14 13:45:06;;;;;;;5.28;1.20;;;;;;;;;;5071431;28;20461;-62
2023/08/14 13:47:32;;;;;;;6.10;2.28;;;;;;;;;;5071321;28;20048;-63
2023/08/14 13:49:58;;;;;;;3.88;1.70;;;;;;;;;;5071332;28;20041;-62
2023/08/14 13:52:24;;;;;;;5.93;2.05;;;;;;;;;;5061264;28;20051;-62
2023/08/14 13:54:50;;;;;;;3.70;1.65;;;;;;;;;;5051529;28;20087;-62
2023/08/14 13:57:16;;;;;;;6.80;2.28;;;;;;;;;;5065560;28;20742;-63
2023/08/14 13:59:42;;;;;;;5.22;1.80;;;;;;;;;;5051207;28;20709;-63
2023/08/14 14:02:09;;;;;;;5.32;1.80;;;;;;;;;;5050364;28;20056;-62
2023/08/14 14:04:35;;;;;;;5.63;2.13;;;;;;;;;;5050716;28;20049;-63
2023/08/14 14:07:01;;;;;;;6.07;1.88;;;;;;;;;;5058438;28;20045;-63
2023/08/14 14:09:27;;;;;;;5.18;1.80;;;;;;;;;;5066980;28;20083;-63
2023/08/14 14:11:53;;;;;;;3.70;1.58;;;;;;;;;;5059066;28;20091;-63
2023/08/14 14:14:19;;;;;;;4.88;2.20;;;;;;;;;;5061134;28;20052;-62
2023/08/14 14:16:52;;;;;;;6.38;2.15;;;;;;;;;;5064453;28;20482;-63
2023/08/14 14:19:18;;;;;;;6.05;2.30;;;;;;;;;;5070921;28;20450;-62
2023/08/14 14:21:44;;;;;;;6.63;2.47;;;;;;;;;;5070284;28;20540;-62
2023/08/14 14:24:10;;;;;;;5.50;2.00;;;;;;;;;;5057777;28;20049;-63
2023/08/14 14:26:36;;;;;;;7.45;2.38;;;;;;;;;;5056159;28;20044;-63